Time;durP1;ratioP1;P1;durP2;ratioP2;P2;SDS_P1;SDS_P2;PMS_P1;PMS_P2;Temp;Humidity;BMP_temperature;BMP_pressure;BME280_temperature;BME280_humidity;BME280_pressure;Samples;Min_cycle;Max_cycle;Signal;HPM_P1;HPM_P2
2022/07/24 00:01:26;;;;;;;2.55;0.90;;;;;;;21.70;71.38;101249.88;7388327;19;20010;-66
2022/07/24 00:03:53;;;;;;;4.50;1.15;;;;;;;21.65;71.59;101250.53;7386344;19;20355;-65
2022/07/24 00:06:20;;;;;;;3.15;0.90;;;;;;;21.63;71.62;101249.94;7388515;19;20070;-66
2022/07/24 00:08:47;;;;;;;3.97;0.90;;;;;;;21.62;72.15;101248.28;7388630;19;20014;-66
2022/07/24 00:11:15;;;;;;;1.98;1.00;;;;;;;21.63;72.03;101251.78;7389313;19;20042;-66
2022/07/24 00:13:48;;;;;;;3.63;0.88;;;;;;;21.64;72.04;101248.88;7389007;19;20011;-66
2022/07/24 00:16:15;;;;;;;4.25;1.08;;;;;;;21.64;72.23;101248.88;7387605;19;20713;-67
2022/07/24 00:18:42;;;;;;;5.75;1.25;;;;;;;21.66;72.15;101256.72;7386585;19;20026;-66
2022/07/24 00:21:09;;;;;;;2.60;0.93;;;;;;;21.65;71.92;101249.72;7386876;19;20006;-66
2022/07/24 00:23:36;;;;;;;2.72;0.90;;;;;;;21.62;72.19;101242.09;7386486;19;20547;-64
2022/07/24 00:26:03;;;;;;;3.00;1.02;;;;;;;21.56;72.12;101253.69;7388876;19;20014;-63
2022/07/24 00:28:30;;;;;;;3.85;2.22;;;;;;;21.52;72.51;101247.13;7389316;19;20010;-62
2022/07/24 00:30:57;;;;;;;4.25;0.80;;;;;;;21.53;73.36;101244.22;7386713;19;20011;-64
2022/07/24 00:33:24;;;;;;;5.50;1.10;;;;;;;21.53;72.56;101243.41;7386609;19;20017;-66
2022/07/24 00:35:51;;;;;;;1.73;0.88;;;;;;;21.52;72.44;101245.25;7385239;19;20014;-66
2022/07/24 00:38:17;;;;;;;5.10;1.30;;;;;;;21.52;73.00;101249.78;7388386;19;20486;-66
2022/07/24 00:40:44;;;;;;;2.53;0.80;;;;;;;21.50;72.87;101243.81;7388554;19;20508;-66
2022/07/24 00:43:12;;;;;;;2.92;0.80;;;;;;;21.48;72.94;101241.38;7389002;19;20037;-66
2022/07/24 00:45:39;;;;;;;2.55;0.93;;;;;;;21.46;73.10;101234.56;7388151;19;20135;-66
2022/07/24 00:48:07;;;;;;;6.63;1.08;;;;;;;21.47;74.30;101236.22;7388184;19;20048;-66
2022/07/24 00:50:36;;;;;;;4.75;1.00;;;;;;;21.44;73.61;101234.78;7383282;19;20017;-65
2022/07/24 00:53:03;;;;;;;2.05;0.70;;;;;;;21.42;73.34;101233.38;7386383;19;20018;-62
2022/07/24 00:55:32;;;;;;;3.90;0.98;;;;;;;21.39;73.63;101242.63;7387749;19;20179;-62
2022/07/24 00:57:59;;;;;;;2.72;0.90;;;;;;;21.34;73.59;101240.59;7386639;19;20539;-62
2022/07/24 01:00:27;;;;;;;2.03;1.00;;;;;;;21.33;73.84;101238.94;7386356;19;20017;-62
2022/07/24 01:02:54;;;;;;;4.30;0.90;;;;;;;21.31;73.82;101230.31;7385496;19;20014;-62
2022/07/24 01:05:22;;;;;;;4.15;1.08;;;;;;;21.30;74.56;101225.16;7383813;19;20010;-62
2022/07/24 01:07:49;;;;;;;4.72;1.00;;;;;;;21.31;74.78;101210.75;7385607;19;20010;-62
2022/07/24 01:10:16;;;;;;;3.42;1.00;;;;;;;21.32;74.64;101212.41;7386757;19;20018;-62
2022/07/24 01:12:43;;;;;;;4.05;1.10;;;;;;;21.33;74.47;101222.09;7386451;19;20491;-62
2022/07/24 01:15:11;;;;;;;3.33;1.00;;;;;;;21.29;74.42;101229.69;7386277;19;20039;-62
2022/07/24 01:17:40;;;;;;;3.80;1.15;;;;;;;21.24;74.22;101217.97;7387816;19;20101;-62
2022/07/24 01:20:08;;;;;;;4.32;1.20;;;;;;;21.23;74.79;101221.72;7383464;19;20498;-62
2022/07/24 01:22:35;;;;;;;3.80;0.80;;;;;;;21.22;74.67;101215.53;7383220;19;20463;-62
2022/07/24 01:25:02;;;;;;;1.77;0.90;;;;;;;21.21;74.91;101213.91;7386776;19;20292;-62
2022/07/24 01:27:29;;;;;;;2.10;1.10;;;;;;;21.25;75.76;101216.97;7385932;19;20077;-64
2022/07/24 01:29:56;;;;;;;4.55;0.95;;;;;;;21.24;75.10;101217.97;7381289;19;20013;-65
2022/07/24 01:32:23;;;;;;;2.50;1.10;;;;;;;21.23;75.29;101230.53;7385190;19;20423;-62
2022/07/24 01:34:50;;;;;;;5.10;1.50;;;;;;;21.24;74.99;101217.97;7383835;19;20073;-62
2022/07/24 01:37:17;;;;;;;3.10;0.90;;;;;;;21.21;74.69;101213.91;7384945;19;20496;-62
2022/07/24 01:39:50;;;;;;;4.88;1.35;;;;;;;21.13;74.96;101216.75;7384650;19;20153;-62
2022/07/24 01:42:19;;;;;;;9.25;0.98;;;;;;;21.12;75.38;101211.66;7385796;19;20019;-65
2022/07/24 01:44:47;;;;;;;5.05;1.98;;;;;;;21.07;75.26;101212.28;7385118;19;20010;-65
2022/07/24 01:47:14;;;;;;;3.17;1.30;;;;;;;21.09;75.96;101209.38;7384737;19;20021;-67
2022/07/24 01:49:41;;;;;;;3.63;1.25;;;;;;;21.11;75.68;101201.97;7382950;19;20034;-65
2022/07/24 01:52:14;;;;;;;3.90;1.10;;;;;;;21.11;75.54;101208.16;7383897;19;20018;-65
2022/07/24 01:54:41;;;;;;;2.85;1.23;;;;;;;21.10;75.17;101208.34;7386841;19;20527;-65
2022/07/24 01:57:08;;;;;;;3.85;1.02;;;;;;;21.07;75.09;101206.94;7385258;19;20503;-65
2022/07/24 01:59:36;;;;;;;3.78;1.33;;;;;;;21.07;75.13;101198.06;7386483;19;20094;-65
2022/07/24 02:02:13;;;;;;;3.95;1.30;;;;;;;21.04;75.27;101191.28;7383975;19;20491;-62
2022/07/24 02:04:40;;;;;;;2.40;1.55;;;;;;;21.04;75.47;101196.63;7382879;19;20511;-61
2022/07/24 02:07:07;;;;;;;3.42;1.55;;;;;;;21.01;75.55;101194.38;7385045;19;20418;-63
2022/07/24 02:09:34;;;;;;;2.40;1.23;;;;;;;21.02;75.45;101195.22;7383797;19;20082;-63
2022/07/24 02:12:01;;;;;;;2.10;1.27;;;;;;;20.99;75.70;101200.97;7385830;19;20019;-63
2022/07/24 02:14:28;;;;;;;4.05;1.08;;;;;;;21.01;75.49;101204.28;7384898;19;20024;-63
2022/07/24 02:16:55;;;;;;;3.35;1.30;;;;;;;20.98;75.25;101192.13;7385020;19;20035;-62
2022/07/24 02:19:23;;;;;;;2.80;1.30;;;;;;;21.00;75.45;101202.63;7379216;19;20055;-61
2022/07/24 02:21:50;;;;;;;4.05;2.10;;;;;;;21.01;76.13;101193.56;7384685;19;20014;-64
2022/07/24 02:24:17;;;;;;;3.25;1.17;;;;;;;21.01;75.77;101189.03;7381405;19;20370;-66
2022/07/24 02:26:44;;;;;;;3.40;1.10;;;;;;;21.01;75.40;101190.88;7386256;19;20018;-65
2022/07/24 02:29:11;;;;;;;5.03;1.13;;;;;;;21.03;75.50;101186.16;7385449;19;20018;-64
2022/07/24 02:31:38;;;;;;;8.02;1.95;;;;;;;21.03;75.34;101197.66;7383768;19;20022;-66
2022/07/24 02:34:05;;;;;;;1.95;1.30;;;;;;;21.01;75.51;101188.22;7381844;19;20041;-66
2022/07/24 02:36:32;;;;;;;2.70;1.08;;;;;;;21.01;75.18;101198.91;7380726;19;20026;-66
2022/07/24 02:38:59;;;;;;;3.03;1.20;;;;;;;21.01;75.37;101190.88;7380934;19;20094;-65
2022/07/24 02:41:26;;;;;;;5.13;1.65;;;;;;;20.97;75.50;101197.72;7384874;19;20278;-65
2022/07/24 02:43:53;;;;;;;4.60;1.40;;;;;;;20.93;75.76;101191.94;7384328;19;20016;-66
2022/07/24 02:46:20;;;;;;;3.47;1.63;;;;;;;20.93;75.97;101192.75;7381734;19;20031;-66
2022/07/24 02:48:47;;;;;;;2.92;1.30;;;;;;;20.90;75.37;101193.19;7381137;19;20500;-66
2022/07/24 02:51:14;;;;;;;3.15;1.58;;;;;;;20.91;75.69;101192.16;7382057;19;20010;-66
2022/07/24 02:53:41;;;;;;;5.68;2.08;;;;;;;20.92;75.55;101204.53;7384594;19;20078;-65
2022/07/24 02:56:08;;;;;;;3.65;1.80;;;;;;;20.94;75.49;101198.94;7384491;19;20444;-65
2022/07/24 02:58:35;;;;;;;3.85;1.58;;;;;;;20.93;75.67;101195.44;7384341;19;20017;-66
2022/07/24 03:01:02;;;;;;;3.60;1.67;;;;;;;20.97;76.47;101195.03;7383251;19;20049;-66
2022/07/24 03:03:29;;;;;;;5.13;1.83;;;;;;;20.96;76.09;101188.84;7381010;19;20038;-67
2022/07/24 03:05:56;;;;;;;2.15;1.20;;;;;;;20.95;75.24;101194.41;7381521;19;20027;-63
2022/07/24 03:08:23;;;;;;;4.72;1.02;;;;;;;20.93;75.59;101191.94;7384282;19;20002;-66
2022/07/24 03:10:50;;;;;;;3.22;1.00;;;;;;;20.92;75.25;101182.28;7384413;19;20370;-66
2022/07/24 03:13:17;;;;;;;4.80;1.50;;;;;;;20.88;75.02;101181.88;7381634;19;20015;-66
2022/07/24 03:15:44;;;;;;;2.42;1.05;;;;;;;20.87;75.57;101176.75;7382918;19;20105;-66
2022/07/24 03:18:11;;;;;;;2.67;1.33;;;;;;;20.86;76.16;101183.94;7383614;19;20014;-64
2022/07/24 03:20:48;;;;;;;4.18;1.30;;;;;;;20.87;75.76;101185.59;7379183;19;20011;-66
2022/07/24 03:23:15;;;;;;;2.63;1.30;;;;;;;20.88;75.44;101184.53;7382169;19;20018;-64
2022/07/24 03:25:42;;;;;;;4.80;1.38;;;;;;;20.85;75.33;101179.63;7383440;19;20018;-64
2022/07/24 03:28:09;;;;;;;4.25;1.45;;;;;;;20.86;75.64;101177.78;7384091;19;20041;-65
2022/07/24 03:30:36;;;;;;;4.63;1.30;;;;;;;20.85;75.44;101190.34;7382300;19;20025;-66
2022/07/24 03:33:03;;;;;;;4.10;1.45;;;;;;;20.85;75.36;101178.81;7383592;19;20011;-66
2022/07/24 03:35:30;;;;;;;6.13;1.10;;;;;;;20.85;75.09;101184.97;7378465;19;20479;-61
2022/07/24 03:37:57;;;;;;;3.25;1.30;;;;;;;20.84;75.68;101188.69;7383324;19;20019;-61
2022/07/24 03:40:24;;;;;;;4.78;1.27;;;;;;;20.84;75.84;101190.53;7383423;19;20066;-61
2022/07/24 03:42:51;;;;;;;2.65;0.90;;;;;;;20.83;75.47;101184.34;7379475;19;20428;-61
2022/07/24 03:45:18;;;;;;;2.13;0.98;;;;;;;20.82;75.59;101185.41;7382783;19;20503;-63
2022/07/24 03:47:46;;;;;;;3.03;1.00;;;;;;;20.81;75.22;101186.44;7383918;19;20014;-67
2022/07/24 03:50:13;;;;;;;3.88;1.30;;;;;;;20.83;75.37;101187.03;7382716;19;20095;-66
2022/07/24 03:52:48;;;;;;;4.13;1.05;;;;;;;20.86;75.77;101191.97;7389116;19;20513;-68
2022/07/24 03:55:16;;;;;;;3.90;1.92;;;;;;;20.85;75.15;101181.47;7389718;19;20014;-67
2022/07/24 03:57:43;;;;;;;3.65;1.30;;;;;;;20.85;75.26;101181.47;7389911;19;20482;-65
2022/07/24 04:00:10;;;;;;;3.92;1.27;;;;;;;20.83;75.07;101183.53;7389387;19;20367;-65
2022/07/24 04:02:37;;;;;;;4.07;0.93;;;;;;;20.84;75.23;101186.00;7389107;19;20309;-66
2022/07/24 04:05:08;;;;;;;3.15;1.05;;;;;;;20.83;74.86;101183.53;7386921;19;20475;-66
2022/07/24 04:07:36;;;;;;;4.30;0.90;;;;;;;20.84;74.48;101179.84;7387615;19;20547;-67
2022/07/24 04:10:05;;;;;;;3.90;0.95;;;;;;;20.83;74.63;101180.84;7387603;19;20420;-66
2022/07/24 04:12:32;;;;;;;1.80;1.05;;;;;;;20.84;74.94;101182.50;7388757;19;20014;-65
2022/07/24 04:14:59;;;;;;;4.10;1.52;;;;;;;20.83;75.00;101178.19;7388876;19;20011;-65
2022/07/24 04:17:26;;;;;;;4.07;1.20;;;;;;;20.77;75.38;101177.19;7389940;19;20021;-67
2022/07/24 04:19:55;;;;;;;3.85;0.90;;;;;;;20.75;75.21;101171.22;7386912;19;20010;-65
2022/07/24 04:22:22;;;;;;;4.70;1.13;;;;;;;20.75;74.87;101167.72;7386357;19;20018;-62
2022/07/24 04:24:50;;;;;;;2.75;0.88;;;;;;;20.72;75.09;101177.00;7390477;19;20014;-63
2022/07/24 04:27:17;;;;;;;3.33;0.90;;;;;;;20.73;75.31;101173.28;7386657;19;20014;-62
2022/07/24 04:29:49;;;;;;;4.32;1.00;;;;;;;20.73;74.95;101167.94;7388716;19;20336;-63
2022/07/24 04:32:15;;;;;;;4.97;1.27;;;;;;;20.73;75.00;101167.09;7389940;19;20447;-63
2022/07/24 04:34:42;;;;;;;6.50;1.20;;;;;;;20.73;75.48;101169.78;7383838;19;20024;-62
2022/07/24 04:37:09;;;;;;;3.00;0.90;;;;;;;20.75;75.25;101163.19;7387813;19;20456;-62
2022/07/24 04:39:36;;;;;;;4.10;1.00;;;;;;;20.75;75.01;101163.19;7385908;19;20018;-61
2022/07/24 04:42:03;;;;;;;2.38;0.90;;;;;;;20.75;74.87;101171.22;7388243;19;20042;-62
2022/07/24 04:44:30;;;;;;;3.13;0.90;;;;;;;20.72;74.79;101170.84;7388010;19;20431;-62
2022/07/24 04:46:57;;;;;;;4.60;1.35;;;;;;;20.68;75.23;101173.09;7389085;19;20538;-62
2022/07/24 04:49:24;;;;;;;3.72;0.90;;;;;;;20.64;75.32;101171.88;7385653;19;20022;-62
2022/07/24 04:51:51;;;;;;;5.63;1.75;;;;;;;20.63;75.67;101172.91;7388290;19;20542;-62
2022/07/24 04:54:18;;;;;;;3.90;0.98;;;;;;;20.63;75.12;101180.09;7386369;19;20014;-62
2022/07/24 04:56:45;;;;;;;6.22;1.05;;;;;;;20.60;75.46;101184.03;7389231;19;20018;-65
2022/07/24 04:59:12;;;;;;;3.35;0.80;;;;;;;20.59;75.35;101176.22;7386824;19;20023;-63
2022/07/24 05:01:39;;;;;;;5.53;0.90;;;;;;;20.55;75.15;101175.81;7384964;19;20018;-67
2022/07/24 05:04:06;;;;;;;3.33;1.45;;;;;;;20.54;75.94;101178.69;7383889;19;20010;-66
2022/07/24 05:06:33;;;;;;;1.67;0.68;;;;;;;20.55;75.84;101165.13;7386590;19;20578;-65
2022/07/24 05:09:00;;;;;;;3.10;0.90;;;;;;;20.57;75.31;101171.06;7386440;19;20034;-63
2022/07/24 05:11:27;;;;;;;4.35;1.00;;;;;;;20.59;75.97;101171.69;7385858;19;20078;-62
2022/07/24 05:13:54;;;;;;;2.42;0.85;;;;;;;20.62;75.94;101170.47;7384234;19;20724;-63
2022/07/24 05:16:21;;;;;;;2.67;0.73;;;;;;;20.64;75.63;101161.19;7387004;19;20378;-66
2022/07/24 05:18:48;;;;;;;2.75;0.90;;;;;;;20.62;75.40;101167.78;7384284;19;20010;-66
2022/07/24 05:21:15;;;;;;;5.50;0.90;;;;;;;20.59;75.08;101168.19;7386363;19;20057;-66
2022/07/24 05:23:43;;;;;;;3.90;0.82;;;;;;;20.56;75.42;101164.09;7384675;19;20055;-65
2022/07/24 05:26:10;;;;;;;3.92;1.00;;;;;;;20.58;75.37;101163.84;7387062;19;20234;-64
2022/07/24 05:28:37;;;;;;;4.38;0.98;;;;;;;20.58;75.83;101159.34;7387194;19;20017;-65
2022/07/24 05:31:03;;;;;;;6.85;0.93;;;;;;;20.59;75.73;101160.16;7385718;19;20377;-65
2022/07/24 05:33:31;;;;;;;2.65;0.80;;;;;;;20.61;75.05;101160.78;7384672;19;20018;-65
2022/07/24 05:35:58;;;;;;;3.67;0.82;;;;;;;20.61;75.34;101163.47;7384845;19;20015;-64
2022/07/24 05:38:25;;;;;;;2.70;0.82;;;;;;;20.62;75.58;101157.09;7385680;19;20018;-64
2022/07/24 05:40:51;;;;;;;3.90;0.60;;;;;;;20.60;75.39;101162.63;7384763;19;20264;-66
2022/07/24 05:43:18;;;;;;;3.63;0.70;;;;;;;20.60;75.25;101162.63;7385025;19;20118;-66
2022/07/24 05:45:46;;;;;;;6.85;1.02;;;;;;;20.60;75.34;101159.13;7386382;19;20034;-64
2022/07/24 05:48:13;;;;;;;5.10;1.60;;;;;;;20.62;75.22;101168.56;7385075;19;20122;-62
2022/07/24 05:50:40;;;;;;;3.55;0.85;;;;;;;20.66;75.96;101160.97;7382513;19;20024;-65
2022/07/24 05:53:07;;;;;;;4.65;0.80;;;;;;;20.68;75.33;101167.75;7385812;19;20029;-63
2022/07/24 05:55:33;;;;;;;5.78;0.90;;;;;;;20.72;75.15;101160.97;7385824;19;20078;-63
2022/07/24 05:58:01;;;;;;;1.80;0.88;;;;;;;20.71;75.41;101164.66;7386326;19;20483;-63
2022/07/24 06:00:28;;;;;;;2.53;0.55;;;;;;;20.72;75.22;101163.63;7385863;19;20010;-63
2022/07/24 06:02:55;;;;;;;3.15;0.63;;;;;;;20.74;75.16;101160.72;7384550;19;20408;-63
2022/07/24 06:05:22;;;;;;;2.38;0.70;;;;;;;20.76;75.46;101156.00;7383237;19;20011;-63
2022/07/24 06:07:49;;;;;;;3.58;1.08;;;;;;;20.75;74.83;101154.34;7384504;19;20117;-62
2022/07/24 06:10:17;;;;;;;4.78;0.70;;;;;;;20.78;75.84;101151.25;7384155;19;20014;-63
2022/07/24 06:12:46;;;;;;;1.98;1.00;;;;;;;20.80;75.58;101146.50;7383560;19;20344;-63
2022/07/24 06:15:13;;;;;;;5.20;0.95;;;;;;;20.85;75.26;101152.88;7385332;19;20009;-63
2022/07/24 06:17:40;;;;;;;2.45;1.17;;;;;;;20.92;74.92;101137.63;7383738;19;20018;-62
2022/07/24 06:20:12;;;;;;;6.88;0.95;;;;;;;21.01;74.45;101138.19;7382542;19;20019;-62
2022/07/24 06:22:41;;;;;;;2.15;0.63;;;;;;;21.05;74.54;101139.41;7383623;19;20086;-63
2022/07/24 06:25:14;;;;;;;4.78;1.00;;;;;;;21.09;74.16;101139.78;7385965;19;20014;-63
2022/07/24 06:27:42;;;;;;;6.80;2.67;;;;;;;21.13;75.14;101130.31;7385527;19;20014;-62
2022/07/24 06:30:17;;;;;;;1.85;0.80;;;;;;;21.13;74.46;101141.81;7384625;19;20024;-63
2022/07/24 06:32:45;;;;;;;4.32;0.80;;;;;;;21.16;74.09;101135.25;7385212;19;20011;-63
2022/07/24 06:35:13;;;;;;;3.85;1.02;;;;;;;21.17;74.01;101131.56;7381782;19;20073;-62
2022/07/24 06:37:41;;;;;;;2.40;0.70;;;;;;;21.12;73.67;101137.53;7384180;19;20026;-63
2022/07/24 06:40:15;;;;;;;3.25;0.80;;;;;;;21.11;73.80;101138.56;7384163;19;20491;-61
2022/07/24 06:42:42;;;;;;;3.90;0.80;;;;;;;21.12;73.89;101132.16;7384009;19;20022;-63
2022/07/24 06:45:09;;;;;;;4.45;0.88;;;;;;;21.16;74.28;101143.28;7384731;19;20494;-63
2022/07/24 06:47:36;;;;;;;2.67;0.93;;;;;;;21.19;74.74;101130.28;7384927;19;20025;-62
2022/07/24 06:50:04;;;;;;;3.58;0.80;;;;;;;21.24;74.07;101135.00;7382935;19;20102;-63
2022/07/24 06:52:31;;;;;;;8.15;2.65;;;;;;;21.27;73.65;101130.06;7382699;19;20063;-63
2022/07/24 06:54:58;;;;;;;2.55;1.00;;;;;;;21.29;73.62;101130.63;7383431;19;20018;-62
2022/07/24 06:57:28;;;;;;;2.42;0.70;;;;;;;21.33;73.43;101131.06;7384259;19;20700;-63
2022/07/24 06:59:55;;;;;;;3.90;0.82;;;;;;;21.33;73.86;101123.81;7381850;19;20270;-62
2022/07/24 07:02:22;;;;;;;3.20;0.70;;;;;;;21.36;73.22;101114.53;7382840;19;20093;-62
2022/07/24 07:04:49;;;;;;;6.88;0.70;;;;;;;21.39;73.20;101124.81;7381407;19;20379;-61
2022/07/24 07:07:16;;;;;;;7.38;0.80;;;;;;;21.40;72.81;101114.91;7382770;19;20010;-62
2022/07/24 07:09:48;;;;;;;4.95;0.90;;;;;;;21.38;72.67;101111.66;7382370;19;20031;-61
2022/07/24 07:12:17;;;;;;;2.85;0.70;;;;;;;21.40;73.12;101109.56;7382317;19;20352;-61
2022/07/24 07:14:44;;;;;;;3.95;0.73;;;;;;;21.39;73.05;101111.41;7383647;19;20086;-62
2022/07/24 07:17:11;;;;;;;3.50;0.70;;;;;;;21.42;72.44;101111.00;7383882;19;20015;-63
2022/07/24 07:19:38;;;;;;;1.98;0.63;;;;;;;21.47;72.19;101105.81;7380762;19;20014;-62
2022/07/24 07:22:05;;;;;;;2.60;0.70;;;;;;;21.50;72.11;101105.38;7381642;19;20029;-63
2022/07/24 07:24:32;;;;;;;2.90;0.63;;;;;;;21.51;72.12;101101.66;7386752;19;20357;-63
2022/07/24 07:26:59;;;;;;;2.15;0.98;;;;;;;21.49;71.81;101102.91;7389254;19;20014;-62
2022/07/24 07:29:26;;;;;;;1.60;0.70;;;;;;;21.52;72.00;101105.97;7391004;19;20014;-66
2022/07/24 07:31:56;;;;;;;1.88;0.60;;;;;;;21.60;71.09;101107.56;7389373;19;20018;-66
2022/07/24 07:34:23;;;;;;;3.42;0.88;;;;;;;21.65;71.63;101100.50;7386935;19;20011;-65
2022/07/24 07:36:50;;;;;;;3.22;0.70;;;;;;;21.69;70.94;101106.25;7389250;19;20031;-66
2022/07/24 07:39:17;;;;;;;1.77;0.60;;;;;;;21.70;70.46;101100.66;7386568;19;20500;-67
2022/07/24 07:41:44;;;;;;;2.42;0.65;;;;;;;21.75;70.45;101103.50;7390539;19;20281;-65
2022/07/24 07:44:11;;;;;;;3.47;0.73;;;;;;;21.82;69.74;101100.78;7386135;19;20019;-65
2022/07/24 07:46:38;;;;;;;1.92;0.70;;;;;;;21.86;69.00;101095.78;7388751;19;20086;-66
2022/07/24 07:49:06;;;;;;;4.47;0.60;;;;;;;21.93;69.18;101112.66;7387040;19;20015;-66
2022/07/24 07:51:34;;;;;;;1.65;0.70;;;;;;;21.98;68.67;101096.75;7388969;19;20407;-64
2022/07/24 07:54:02;;;;;;;1.25;0.60;;;;;;;22.08;68.35;101105.13;7387338;19;20015;-66
2022/07/24 07:56:31;;;;;;;3.60;0.70;;;;;;;22.19;67.91;101104.38;7390540;19;20153;-66
2022/07/24 07:58:58;;;;;;;4.13;0.70;;;;;;;22.24;67.57;101093.00;7389095;19;20015;-66
2022/07/24 08:01:27;;;;;;;4.38;0.60;;;;;;;22.26;67.71;101091.72;7389202;19;20011;-66
2022/07/24 08:03:54;;;;;;;2.85;1.05;;;;;;;22.27;67.42;101090.66;7382931;19;20420;-66
2022/07/24 08:06:21;;;;;;;1.88;0.77;;;;;;;22.29;67.48;101091.28;7387736;19;20010;-67
2022/07/24 08:08:49;;;;;;;2.40;0.70;;;;;;;22.36;67.14;101096.56;7388838;19;20014;-67
2022/07/24 08:11:17;;;;;;;4.63;1.25;;;;;;;22.39;65.93;101096.13;7389291;19;20010;-66
2022/07/24 08:13:44;;;;;;;2.80;0.60;;;;;;;22.44;65.82;101090.91;7386067;19;20085;-66
2022/07/24 08:16:11;;;;;;;7.47;4.03;;;;;;;22.48;65.21;101100.13;7388934;19;20871;-66
2022/07/24 08:18:39;;;;;;;2.88;0.90;;;;;;;22.49;65.46;101107.16;7387940;19;20021;-66
2022/07/24 08:21:06;;;;;;;1.73;0.65;;;;;;;22.54;65.68;101100.06;7388341;19;20015;-66
2022/07/24 08:23:33;;;;;;;1.60;0.57;;;;;;;22.57;65.31;101104.97;7385474;19;20565;-63
2022/07/24 08:26:00;;;;;;;3.30;0.70;;;;;;;22.64;65.48;101096.84;7386308;19;20010;-63
2022/07/24 08:28:27;;;;;;;3.85;0.60;;;;;;;22.68;64.88;101086.47;7388272;19;20014;-62
2022/07/24 08:30:53;;;;;;;2.03;0.60;;;;;;;22.73;64.89;101092.84;7390013;19;20010;-64
2022/07/24 08:33:20;;;;;;;2.63;0.65;;;;;;;22.79;64.01;101089.25;7387385;19;20014;-63
2022/07/24 08:35:47;;;;;;;1.77;0.60;;;;;;;22.85;63.84;101093.72;7382180;19;20122;-62
2022/07/24 08:38:14;;;;;;;2.08;0.50;;;;;;;22.90;62.86;101088.50;7386758;19;20034;-63
2022/07/24 08:40:41;;;;;;;6.00;0.70;;;;;;;22.94;62.18;101096.91;7387656;19;20010;-62
2022/07/24 08:43:09;;;;;;;2.30;0.68;;;;;;;22.95;62.84;101085.94;7387215;19;20467;-62
2022/07/24 08:45:38;;;;;;;2.38;0.68;;;;;;;22.97;62.85;101086.50;7388106;19;20349;-63
2022/07/24 08:48:10;;;;;;;5.95;0.80;;;;;;;22.99;62.69;101086.28;7387809;19;20014;-62
2022/07/24 08:50:41;;;;;;;7.50;1.40;;;;;;;23.00;62.94;101083.41;7385163;19;20482;-62
2022/07/24 08:53:08;;;;;;;2.08;0.60;;;;;;;23.07;62.67;101077.09;7385946;19;20014;-65
2022/07/24 08:55:35;;;;;;;2.85;0.93;;;;;;;23.13;62.64;101078.84;7387445;19;20433;-66
2022/07/24 08:58:02;;;;;;;1.65;0.70;;;;;;;23.16;62.35;101063.09;7385061;19;20017;-66
2022/07/24 09:00:30;;;;;;;2.55;0.70;;;;;;;23.19;62.29;101070.72;7386729;19;20380;-66
2022/07/24 09:02:57;;;;;;;3.20;0.70;;;;;;;23.26;62.94;101057.19;7388011;19;20011;-66
2022/07/24 09:05:25;;;;;;;4.50;0.75;;;;;;;23.30;62.41;101056.50;7383630;19;20010;-66
2022/07/24 09:08:09;;;;;;;1.27;0.50;;;;;;;23.37;61.95;101062.56;7384958;19;20006;-66
2022/07/24 09:10:37;;;;;;;5.30;0.70;;;;;;;23.44;61.36;101049.84;7386810;19;20082;-66
2022/07/24 09:13:15;;;;;;;1.88;0.70;;;;;;;23.53;61.48;101052.22;7387534;19;20042;-62
2022/07/24 09:15:48;;;;;;;2.33;0.57;;;;;;;23.62;59.70;101048.16;7386075;19;20663;-61
2022/07/24 09:18:45;;;;;;;2.85;0.60;;;;;;;23.85;58.46;101045.47;7387211;19;20018;-63
2022/07/24 09:21:14;;;;;;;13.82;0.90;;;;;;;24.24;57.48;101042.03;7384542;19;20021;-63
2022/07/24 09:23:42;;;;;;;6.38;0.70;;;;;;;24.64;55.56;101043.91;7384388;19;20011;-62
2022/07/24 09:26:10;;;;;;;3.88;0.60;;;;;;;24.85;55.49;101034.31;7384187;19;20027;-62
2022/07/24 09:28:54;;;;;;;0.95;0.50;;;;;;;24.94;54.99;101035.63;7386820;19;20025;-62
2022/07/24 09:31:22;;;;;;;1.77;0.90;;;;;;;24.96;54.64;101034.31;7385817;19;20512;-62
2022/07/24 09:33:50;;;;;;;2.63;0.70;;;;;;;24.97;55.09;101033.25;7383368;19;20026;-63
2022/07/24 09:36:18;;;;;;;1.27;0.60;;;;;;;24.94;55.11;101036.41;7384909;19;20027;-63
2022/07/24 09:38:50;;;;;;;1.60;0.70;;;;;;;24.89;54.15;101024.75;7385204;19;20029;-62
2022/07/24 09:41:21;;;;;;;1.80;0.60;;;;;;;24.89;54.62;101024.75;7385127;19;20043;-62
2022/07/24 09:44:02;;;;;;;2.40;0.57;;;;;;;24.93;54.83;101015.13;7385876;19;20078;-62
2022/07/24 09:46:46;;;;;;;1.17;0.60;;;;;;;25.00;54.13;101013.91;7385838;19;20010;-61
2022/07/24 09:49:20;;;;;;;1.90;0.80;;;;;;;25.06;53.91;101010.22;7382086;19;20359;-63
2022/07/24 09:52:10;;;;;;;3.00;0.60;;;;;;;25.13;54.09;101005.50;7383994;19;20014;-62
2022/07/24 09:54:45;;;;;;;2.47;0.90;;;;;;;25.19;53.81;101008.28;7385252;19;20055;-60
2022/07/24 09:57:15;;;;;;;2.33;0.68;;;;;;;25.25;53.54;101012.69;7386768;19;20019;-62
2022/07/24 09:59:57;;;;;;;2.83;1.10;;;;;;;25.27;53.84;101003.31;7384021;19;20014;-62
2022/07/24 10:02:27;;;;;;;1.83;0.68;;;;;;;25.32;51.99;101013.34;7383471;19;20029;-62
2022/07/24 10:04:56;;;;;;;1.70;0.65;;;;;;;25.38;51.38;101009.66;7380791;19;20014;-63
2022/07/24 10:07:24;;;;;;;1.50;0.68;;;;;;;25.46;50.58;101004.69;7382583;19;20514;-61
2022/07/24 10:10:03;;;;;;;4.15;0.60;;;;;;;25.55;49.89;101013.19;7385429;19;20077;-62
2022/07/24 10:12:31;;;;;;;1.38;0.60;;;;;;;25.62;49.60;101011.13;7384130;19;20011;-62
2022/07/24 10:15:01;;;;;;;2.63;0.60;;;;;;;25.69;50.04;101005.59;7384434;19;20404;-63
2022/07/24 10:17:50;;;;;;;1.75;0.52;;;;;;;25.76;49.99;101006.19;7384151;19;20022;-62
2022/07/24 10:20:40;;;;;;;1.20;0.50;;;;;;;25.84;48.80;101006.63;7381998;19;20052;-62
2022/07/24 10:23:27;;;;;;;2.65;0.50;;;;;;;25.93;48.32;101010.50;7383642;19;20018;-62
2022/07/24 10:25:57;;;;;;;2.25;0.52;;;;;;;25.97;47.49;101000.84;7382499;19;20105;-62
2022/07/24 10:28:37;;;;;;;2.35;0.50;;;;;;;26.04;47.65;101011.47;7384838;19;20014;-62
2022/07/24 10:31:06;;;;;;;1.33;0.50;;;;;;;26.12;48.52;100991.28;7383974;19;20033;-63
2022/07/24 10:33:36;;;;;;;1.17;0.52;;;;;;;26.19;47.68;100992.75;7382689;19;20068;-62
2022/07/24 10:36:12;;;;;;;1.10;0.60;;;;;;;26.24;47.66;101002.81;7381958;19;20118;-62
2022/07/24 10:38:44;;;;;;;3.38;0.60;;;;;;;26.24;47.17;101002.81;7383348;19;20014;-62
2022/07/24 10:41:25;;;;;;;2.10;0.60;;;;;;;26.25;46.46;101001.75;7381590;19;20019;-62
2022/07/24 10:44:17;;;;;;;4.82;0.60;;;;;;;26.26;47.09;101006.09;7384064;19;20014;-62
2022/07/24 10:46:59;;;;;;;2.03;0.85;;;;;;;26.24;46.55;100997.44;7383520;19;20062;-62
2022/07/24 10:49:39;;;;;;;3.90;0.50;;;;;;;26.27;45.94;100983.41;7381356;19;20030;-62
2022/07/24 10:52:28;;;;;;;1.80;0.60;;;;;;;26.29;46.30;100987.50;7382843;19;20480;-62
2022/07/24 10:55:20;;;;;;;1.55;0.63;;;;;;;26.35;46.86;100981.09;7383810;19;20105;-62
2022/07/24 10:57:53;;;;;;;1.83;0.70;;;;;;;26.37;46.45;100978.94;7382222;19;20089;-62
2022/07/24 11:00:25;;;;;;;1.70;0.70;;;;;;;26.41;46.12;100981.16;7395363;19;20006;-62
2022/07/24 11:02:59;;;;;;;;;;;;;;;26.44;46.54;100983.34;7398440;19;20434;-62
2022/07/24 11:05:38;;;;;;;2.28;0.60;;;;;;;26.47;46.16;100977.41;7394823;19;19918;-62
2022/07/24 11:08:11;;;;;;;2.50;0.50;;;;;;;26.50;45.85;100974.22;7398678;19;20404;-62
2022/07/24 11:10:48;;;;;;;1.80;1.05;;;;;;;26.56;45.85;100970.53;7397411;19;20041;-62
2022/07/24 11:13:33;;;;;;;3.25;0.52;;;;;;;26.67;46.79;100972.22;7397739;19;20021;-65
2022/07/24 11:16:17;;;;;;;3.38;0.63;;;;;;;26.72;46.39;100977.66;7398551;19;20349;-66
2022/07/24 11:18:54;;;;;;;2.35;0.52;;;;;;;26.77;45.94;100972.31;7393430;19;20018;-64
2022/07/24 11:21:36;;;;;;;2.55;0.70;;;;;;;26.82;45.62;100975.88;7394403;19;20007;-64
2022/07/24 11:26:51;;;;;;;3.33;0.70;;;;;;;26.85;45.64;100962.94;7398498;19;20018;-63
2022/07/24 11:29:23;;;;;;;1.60;0.60;;;;;;;26.86;44.89;100957.28;7395972;19;20044;-64
2022/07/24 11:31:54;;;;;;;2.15;0.50;;;;;;;26.85;44.64;100952.13;7395438;19;20014;-63
2022/07/24 11:34:22;;;;;;;2.20;0.43;;;;;;;26.83;44.75;100952.38;7392179;19;20014;-63
2022/07/24 11:36:51;;;;;;;4.70;0.98;;;;;;;26.83;44.64;100961.31;7393505;19;20014;-61